Time;durP1;ratioP1;P1;durP2;ratioP2;P2;SDS_P1;SDS_P2;PMS_P1;PMS_P2;Temp;Humidity;BMP_temperature;BMP_pressure;BME280_temperature;BME280_humidity;BME280_pressure;Samples;Min_cycle;Max_cycle;Signal;HPM_P1;HPM_P2
2022/06/16 00:00:53;;;;;;;6.10;2.70;;;;;;;16.39;89.42;98902.56;5115597;28;20051;-83
2022/06/16 00:03:19;;;;;;;5.38;2.88;;;;;;;16.45;89.57;98918.94;5113458;27;20047;-82
2022/06/16 00:05:46;;;;;;;5.95;2.55;;;;;;;16.38;90.21;98909.97;5115234;28;20404;-82
2022/06/16 00:08:16;;;;;;;5.28;2.63;;;;;;;16.39;89.65;98908.03;5115351;28;20051;-82
2022/06/16 00:11:16;;;;;;;4.53;3.22;;;;;;;16.41;90.84;98908.63;5115306;28;20415;-83
2022/06/16 00:13:33;;;;;;;3.50;2.60;;;;;;;16.42;89.56;98910.31;5114690;28;20123;-83
2022/06/16 00:16:00;;;;;;;9.32;3.13;;;;;;;16.30;89.83;98901.19;5115156;28;20044;-82
2022/06/16 00:18:27;;;;;;;4.03;2.80;;;;;;;16.16;90.27;98895.84;5113737;28;20077;-82
2022/06/16 00:20:54;;;;;;;6.05;2.60;;;;;;;16.27;89.58;98914.31;5115117;28;20394;-82
2022/06/16 00:23:20;;;;;;;6.15;3.30;;;;;;;16.27;90.99;98916.19;5114758;28;20124;-82
2022/06/16 00:25:47;;;;;;;4.60;2.92;;;;;;;16.24;91.56;98917.50;5114973;28;20052;-82
2022/06/16 00:28:13;;;;;;;5.30;3.22;;;;;;;16.18;92.62;98917.56;5114823;28;20043;-83
2022/06/16 00:30:43;;;;;;;7.03;2.72;;;;;;;16.07;93.48;98914.50;5114782;28;20048;-82
2022/06/16 00:33:09;;;;;;;5.18;2.92;;;;;;;15.82;96.08;98911.81;5114083;27;20398;-82
2022/06/16 00:35:36;;;;;;;5.43;2.83;;;;;;;15.90;95.62;98896.97;5114891;28;20452;-82
2022/06/16 00:38:03;;;;;;;8.35;3.20;;;;;;;15.89;93.46;98907.09;5115037;28;20051;-82
2022/06/16 00:40:29;;;;;;;5.53;2.90;;;;;;;15.92;93.71;98895.66;5114254;28;20596;-82
2022/06/16 00:42:56;;;;;;;6.20;2.97;;;;;;;15.88;94.57;98902.69;5114450;28;20047;-82
2022/06/16 00:45:50;;;;;;;7.60;2.83;;;;;;;15.97;95.07;98908.69;5113789;28;20044;-82
2022/06/16 00:48:23;;;;;;;5.15;3.00;;;;;;;15.74;96.05;98893.69;5114420;28;20047;-82
2022/06/16 00:50:52;;;;;;;9.13;2.97;;;;;;;15.83;97.10;98908.00;5114533;28;20059;-83
2022/06/16 00:53:19;;;;;;;4.93;2.75;;;;;;;15.74;97.85;98915.63;5114209;27;20399;-82
2022/06/16 00:55:45;;;;;;;5.93;3.20;;;;;;;15.55;99.00;98906.53;5114444;28;20430;-82
2022/06/16 00:58:13;;;;;;;4.13;2.83;;;;;;;15.48;99.18;98897.53;5114622;28;20047;-82
2022/06/16 01:00:44;;;;;;;4.45;2.72;;;;;;;15.68;96.93;98893.78;5113007;28;20051;-82
2022/06/16 01:03:12;;;;;;;5.40;2.85;;;;;;;15.35;97.18;98873.81;5114028;28;20056;-82
2022/06/16 01:05:39;;;;;;;2.85;2.63;;;;;;;15.20;99.63;98896.06;5112988;28;20093;-82
2022/06/16 01:08:07;;;;;;;7.13;2.92;;;;;;;15.29;99.71;98898.53;5114266;28;20482;-82
2022/06/16 01:10:42;;;;;;;6.45;2.40;;;;;;;15.46;98.78;98912.50;5113668;28;20048;-82
2022/06/16 01:13:42;;;;;;;6.55;3.00;;;;;;;15.44;99.28;98903.69;5112676;28;20448;-82
2022/06/16 01:16:19;;;;;;;4.85;3.08;;;;;;;15.44;98.57;98893.53;5093680;28;20048;-82
2022/06/16 01:18:59;;;;;;;3.65;3.05;;;;;;;15.35;98.93;98903.09;5094052;28;20060;-82
2022/06/16 01:21:36;;;;;;;3.78;2.92;;;;;;;15.21;99.65;98914.16;5093641;28;20062;-82
2022/06/16 01:24:34;;;;;;;4.47;3.38;;;;;;;15.30;99.93;98900.22;5093307;28;20055;-82
2022/06/16 01:27:23;;;;;;;4.78;3.28;;;;;;;15.25;99.35;98900.03;5099639;28;20043;-82
2022/06/16 01:29:59;;;;;;;6.07;3.35;;;;;;;15.02;100.00;98893.22;5112550;28;20047;-82
2022/06/16 01:32:40;;;;;;;4.18;3.03;;;;;;;14.99;100.00;98883.53;5113592;28;20047;-82
2022/06/16 01:35:14;;;;;;;5.22;2.75;;;;;;;15.11;100.00;98893.81;5113826;28;20050;-83
2022/06/16 01:37:50;;;;;;;3.55;2.83;;;;;;;15.13;100.00;98889.78;5114423;28;20054;-82
2022/06/16 01:40:22;;;;;;;4.38;2.95;;;;;;;15.19;100.00;98893.53;5112909;28;20047;-82
2022/06/16 01:42:55;;;;;;;4.25;3.13;;;;;;;15.17;100.00;98884.69;5113794;28;20054;-82
2022/06/16 01:45:28;;;;;;;5.72;3.30;;;;;;;15.24;100.00;98881.94;5114066;28;20051;-82
2022/06/16 01:47:57;;;;;;;4.80;3.20;;;;;;;15.05;100.00;98870.88;5114080;28;20059;-82
2022/06/16 01:50:30;;;;;;;7.00;3.15;;;;;;;15.16;100.00;98870.19;5113898;28;20058;-82
2022/06/16 01:53:08;;;;;;;5.50;3.03;;;;;;;15.09;100.00;98880.34;5113933;28;20419;-82
2022/06/16 01:55:42;;;;;;;3.35;2.80;;;;;;;15.08;100.00;98866.88;5112135;28;20479;-82
2022/06/16 01:58:13;;;;;;;6.55;3.60;;;;;;;15.00;100.00;98876.19;5112555;28;20040;-82
2022/06/16 02:00:44;;;;;;;6.68;3.33;;;;;;;14.89;100.00;98861.31;5113730;28;20055;-82
2022/06/16 02:03:18;;;;;;;7.30;2.85;;;;;;;14.84;100.00;98872.94;5113303;28;20082;-82
2022/06/16 02:05:50;;;;;;;4.28;2.80;;;;;;;14.61;100.00;98853.47;5113765;28;20483;-82
2022/06/16 02:08:20;;;;;;;4.70;3.13;;;;;;;14.71;100.00;98877.63;5113570;28;20563;-82
2022/06/16 02:10:50;;;;;;;4.63;2.97;;;;;;;14.48;100.00;98852.47;5112861;28;20043;-82
2022/06/16 02:13:22;;;;;;;3.38;2.90;;;;;;;14.69;100.00;98873.22;5113150;28;20050;-82
2022/06/16 02:15:57;;;;;;;6.20;3.22;;;;;;;14.68;100.00;98877.00;5113668;28;20054;-82
2022/06/16 02:18:27;;;;;;;6.80;2.80;;;;;;;14.64;100.00;98866.72;5113506;28;20048;-83
2022/06/16 02:21:00;;;;;;;4.05;2.72;;;;;;;14.65;100.00;98873.88;5113624;28;20050;-83
2022/06/16 02:23:26;;;;;;;4.20;2.95;;;;;;;14.43;100.00;98848.69;5114933;27;20052;-82
2022/06/16 02:25:55;;;;;;;4.00;2.75;;;;;;;14.50;100.00;98866.75;5117112;28;20051;-82
2022/06/16 02:28:22;;;;;;;3.17;2.72;;;;;;;14.54;100.00;98869.88;5117121;28;20074;-82
2022/06/16 02:31:05;;;;;;;4.40;3.28;;;;;;;14.43;100.00;98865.94;5117247;28;20058;-82
2022/06/16 02:33:39;;;;;;;8.63;2.90;;;;;;;14.41;100.00;98859.03;5116855;28;20059;-83
2022/06/16 02:36:17;;;;;;;6.50;2.97;;;;;;;14.22;100.00;98867.06;5116999;28;20040;-82
2022/06/16 02:38:56;;;;;;;8.13;3.20;;;;;;;14.19;100.00;98853.84;5115611;28;20059;-82
2022/06/16 02:41:30;;;;;;;4.35;3.00;;;;;;;14.14;100.00;98859.13;5116359;28;20052;-82
2022/06/16 02:44:05;;;;;;;4.75;2.85;;;;;;;14.13;100.00;98855.53;5116480;28;20070;-82
2022/06/16 02:46:45;;;;;;;3.85;2.50;;;;;;;14.25;100.00;98854.88;5116201;28;20059;-83
2022/06/16 02:49:20;;;;;;;7.95;3.20;;;;;;;14.16;100.00;98833.22;5116864;28;20051;-82
2022/06/16 02:51:58;;;;;;;4.47;2.75;;;;;;;14.12;100.00;98842.94;5115279;28;20082;-82
2022/06/16 02:54:30;;;;;;;8.05;3.00;;;;;;;13.99;100.00;98826.59;5095997;28;20117;-82
2022/06/16 02:57:01;;;;;;;5.10;2.78;;;;;;;14.20;100.00;98841.84;5096130;28;20094;-81
2022/06/16 02:59:33;;;;;;;8.20;3.28;;;;;;;14.21;100.00;98840.81;5096060;28;20055;-82
2022/06/16 03:02:07;;;;;;;6.65;3.28;;;;;;;14.20;100.00;98844.59;5096093;28;20047;-81
2022/06/16 03:04:36;;;;;;;6.60;3.13;;;;;;;14.03;100.00;98837.91;5096153;28;20166;-82
2022/06/16 03:07:03;;;;;;;5.47;2.75;;;;;;;14.09;100.00;98858.91;5109704;27;20148;-82
2022/06/16 03:09:29;;;;;;;5.82;3.22;;;;;;;14.05;100.00;98849.50;5116377;28;20051;-82
2022/06/16 03:11:56;;;;;;;7.63;2.88;;;;;;;14.04;100.00;98848.63;5116342;28;20384;-82
2022/06/16 03:14:22;;;;;;;4.38;3.25;;;;;;;13.96;100.00;98840.69;5116399;28;20051;-81
2022/06/16 03:16:49;;;;;;;5.65;3.17;;;;;;;13.84;100.00;98843.22;5116480;28;20051;-81
2022/06/16 03:19:18;;;;;;;4.78;3.47;;;;;;;13.79;100.00;98838.41;5116024;28;20051;-81
2022/06/16 03:21:45;;;;;;;4.25;3.25;;;;;;;13.67;100.00;98844.72;5116110;27;20056;-82
2022/06/16 03:24:11;;;;;;;8.48;3.30;;;;;;;13.66;100.00;98856.72;5115812;28;20054;-82
2022/06/16 03:26:38;;;;;;;7.88;3.15;;;;;;;13.81;100.00;98849.13;5116088;28;20052;-81
2022/06/16 03:29:04;;;;;;;6.35;3.40;;;;;;;13.71;100.00;98835.06;5115997;28;20055;-82
2022/06/16 03:31:31;;;;;;;4.57;2.80;;;;;;;13.91;100.00;98855.00;5115882;28;20048;-81
2022/06/16 03:33:58;;;;;;;10.70;3.15;;;;;;;13.99;100.00;98864.84;5114461;27;20514;-81
2022/06/16 03:36:26;;;;;;;7.60;3.25;;;;;;;13.89;100.00;98861.72;5114626;27;20069;-81
2022/06/16 03:38:53;;;;;;;5.32;3.13;;;;;;;13.84;100.00;98867.00;5115579;28;20134;-81
2022/06/16 03:41:19;;;;;;;4.18;2.90;;;;;;;14.01;100.00;98881.84;5115765;28;20043;-81
2022/06/16 03:43:45;;;;;;;11.15;3.05;;;;;;;14.01;100.00;98868.19;5114927;28;20067;-80
2022/06/16 03:46:12;;;;;;;3.30;2.97;;;;;;;13.96;100.00;98878.94;5115511;28;20044;-81
2022/06/16 03:48:39;;;;;;;4.50;2.90;;;;;;;13.81;100.00;98890.09;5115210;28;20540;-81
2022/06/16 03:51:07;;;;;;;5.38;2.83;;;;;;;13.61;100.00;98884.69;5113645;28;20048;-81
2022/06/16 03:53:35;;;;;;;3.95;2.78;;;;;;;13.68;100.00;98896.41;5115105;28;20056;-82
2022/06/16 03:56:02;;;;;;;4.57;3.17;;;;;;;13.69;100.00;98892.66;5115352;28;20077;-81
2022/06/16 03:58:28;;;;;;;4.18;2.75;;;;;;;13.73;100.00;98888.44;5115250;28;20051;-81
2022/06/16 04:00:55;;;;;;;4.55;3.10;;;;;;;13.78;100.00;98883.16;5115395;28;20047;-81
2022/06/16 04:06:05;;;;;;;3.38;3.05;;;;;;;13.83;100.00;98898.91;5114779;27;20050;-82
2022/06/16 04:08:32;;;;;;;4.95;3.42;;;;;;;13.97;100.00;98895.13;5115562;28;20051;-81
2022/06/16 04:11:26;;;;;;;5.15;3.65;;;;;;;14.09;100.00;98888.97;5115856;28;20078;-81
2022/06/16 04:13:46;;;;;;;8.10;3.05;;;;;;;14.42;100.00;98904.44;5114696;28;20059;-82
2022/06/16 04:16:12;;;;;;;5.10;3.40;;;;;;;14.47;100.00;98894.53;5115111;28;20055;-82
2022/06/16 04:18:39;;;;;;;9.60;3.60;;;;;;;14.59;100.00;98913.00;5114779;27;20066;-81
2022/06/16 04:21:05;;;;;;;4.45;3.20;;;;;;;14.63;100.00;98922.47;5114885;28;20074;-81
2022/06/16 04:23:32;;;;;;;7.55;3.78;;;;;;;14.80;100.00;98920.09;5114834;28;20074;-82
2022/06/16 04:25:59;;;;;;;4.72;3.30;;;;;;;15.06;100.00;98924.59;5114627;28;20126;-82
2022/06/16 04:28:26;;;;;;;7.47;3.67;;;;;;;15.27;100.00;98922.56;5114655;28;20047;-81
2022/06/16 04:30:52;;;;;;;5.45;3.45;;;;;;;15.27;100.00;98917.09;5115120;28;20060;-82
2022/06/16 04:33:19;;;;;;;5.07;3.58;;;;;;;15.33;100.00;98899.75;5112983;28;20482;-81
2022/06/16 04:35:46;;;;;;;4.95;3.05;;;;;;;15.43;100.00;98940.34;5114615;28;20043;-81
2022/06/16 04:38:12;;;;;;;5.55;3.95;;;;;;;15.70;100.00;98946.44;5114686;28;20130;-81
2022/06/16 04:40:39;;;;;;;6.97;3.58;;;;;;;15.77;100.00;98936.28;5114027;28;20054;-81
2022/06/16 04:43:06;;;;;;;5.15;3.28;;;;;;;15.86;100.00;98932.22;5114225;28;20052;-81
2022/06/16 04:45:33;;;;;;;7.53;3.38;;;;;;;15.73;100.00;98919.44;5113408;28;20047;-82
2022/06/16 04:48:00;;;;;;;8.80;3.58;;;;;;;15.73;100.00;98919.44;5113291;28;20075;-81
2022/06/16 04:50:26;;;;;;;9.25;3.47;;;;;;;15.78;100.00;98924.28;5114268;28;20054;-82
2022/06/16 04:52:53;;;;;;;7.95;3.15;;;;;;;16.01;100.00;98952.97;5114250;28;20054;-82
2022/06/16 04:55:20;;;;;;;5.00;3.05;;;;;;;16.13;100.00;98955.81;5114259;28;20051;-82
2022/06/16 04:57:46;;;;;;;5.25;3.20;;;;;;;16.07;100.00;98939.19;5114593;28;20060;-82
2022/06/16 05:00:17;;;;;;;7.20;4.03;;;;;;;16.19;100.00;98950.25;5114356;28;20092;-82
2022/06/16 05:02:43;;;;;;;5.18;3.50;;;;;;;16.34;100.00;98946.31;5113546;27;20129;-82
2022/06/16 05:05:10;;;;;;;6.80;3.83;;;;;;;16.05;100.00;98915.81;5113809;28;20043;-82
2022/06/16 05:07:36;;;;;;;5.65;2.97;;;;;;;16.18;100.00;98940.31;5114223;28;20055;-82
2022/06/16 05:10:03;;;;;;;5.43;3.40;;;;;;;16.32;100.00;98953.91;5114141;28;20054;-82
2022/06/16 05:12:30;;;;;;;5.03;3.67;;;;;;;16.39;100.00;98943.69;5113659;28;20047;-82
2022/06/16 05:14:56;;;;;;;11.88;3.45;;;;;;;16.46;100.00;98952.72;5113630;28;20497;-82
2022/06/16 05:17:24;;;;;;;5.70;3.60;;;;;;;16.52;100.00;98964.69;5113909;28;20050;-82
2022/06/16 05:19:50;;;;;;;6.15;3.53;;;;;;;16.58;100.00;98961.84;5112960;28;20043;-82
2022/06/16 05:22:18;;;;;;;9.02;3.80;;;;;;;16.52;100.00;98961.94;5113685;28;20055;-81
2022/06/16 05:24:44;;;;;;;5.63;3.38;;;;;;;16.61;100.00;98983.34;5113716;28;20563;-82
2022/06/16 05:27:11;;;;;;;4.75;3.50;;;;;;;16.68;100.00;98980.53;5113972;28;20040;-82
2022/06/16 05:29:37;;;;;;;5.60;3.20;;;;;;;16.67;100.00;98967.88;5113501;28;20048;-82
2022/06/16 05:32:04;;;;;;;4.88;3.42;;;;;;;16.78;100.00;98974.50;5112863;28;20415;-81
2022/06/16 05:34:32;;;;;;;6.03;3.20;;;;;;;16.60;100.00;98978.91;5113702;28;20043;-81
2022/06/16 05:36:59;;;;;;;7.35;3.40;;;;;;;16.44;100.00;98985.03;5113811;28;20043;-82
2022/06/16 05:39:25;;;;;;;6.95;3.55;;;;;;;16.82;100.00;98970.22;5113458;28;20066;-82
2022/06/16 05:41:52;;;;;;;8.10;4.07;;;;;;;16.87;100.00;98961.31;5113668;28;20407;-82
2022/06/16 05:44:18;;;;;;;8.80;3.88;;;;;;;16.84;100.00;98957.09;5113158;28;20490;-82
2022/06/16 05:46:45;;;;;;;5.95;3.50;;;;;;;16.78;100.00;98963.50;5112043;28;20052;-81
2022/06/16 05:49:13;;;;;;;6.07;3.88;;;;;;;16.90;100.00;98969.09;5113082;28;20070;-82
2022/06/16 05:51:41;;;;;;;6.93;3.30;;;;;;;17.11;100.00;98978.75;5112685;28;20457;-82
2022/06/16 05:54:07;;;;;;;5.00;3.60;;;;;;;17.23;100.00;98976.88;5113104;28;20043;-81
2022/06/16 05:56:34;;;;;;;5.53;4.05;;;;;;;17.45;100.00;98960.72;5113225;28;20048;-82
2022/06/16 05:59:01;;;;;;;10.60;3.47;;;;;;;18.40;98.42;98969.91;5117376;28;20100;-82
2022/06/16 06:01:28;;;;;;;3.65;3.10;;;;;;;19.25;92.18;98961.19;5116160;27;20044;-82
2022/06/16 06:03:54;;;;;;;5.30;3.17;;;;;;;19.31;90.40;98967.66;5116796;28;20506;-83
2022/06/16 06:06:21;;;;;;;4.97;3.33;;;;;;;19.37;91.27;98989.53;5117360;28;20043;-82
2022/06/16 06:17:09;;;;;;;4.30;2.95;;;;;;;21.12;76.01;98981.22;5096905;28;20070;-82
2022/06/16 06:19:35;;;;;;;5.00;3.10;;;;;;;21.55;74.75;98986.94;5097011;28;20060;-83
2022/06/16 06:22:06;;;;;;;6.88;3.42;;;;;;;21.99;72.34;98974.88;5096514;28;20045;-82
2022/06/16 06:24:36;;;;;;;6.10;3.03;;;;;;;22.22;70.91;98977.28;5096574;28;20502;-83
2022/06/16 06:27:08;;;;;;;5.60;3.13;;;;;;;22.35;70.20;98972.41;5096825;28;20055;-83
2022/06/16 06:29:35;;;;;;;6.38;3.15;;;;;;;21.91;67.34;98965.16;5096850;28;20090;-82
2022/06/16 06:32:01;;;;;;;5.22;3.60;;;;;;;21.52;67.31;98985.53;5096427;28;20522;-82
2022/06/16 06:34:28;;;;;;;5.80;3.10;;;;;;;20.94;66.73;98989.81;5096866;28;20090;-83
2022/06/16 06:36:55;;;;;;;7.80;3.00;;;;;;;20.87;72.51;98995.56;5095367;28;20052;-83
2022/06/16 06:39:22;;;;;;;6.70;3.78;;;;;;;20.76;73.66;98994.59;5094677;28;20044;-83
2022/06/16 06:41:50;;;;;;;6.18;3.45;;;;;;;20.62;74.55;98988.56;5096241;28;20484;-82
2022/06/16 06:44:16;;;;;;;5.70;2.88;;;;;;;21.06;69.11;99009.88;5106344;28;20039;-83
2022/06/16 06:46:43;;;;;;;5.68;3.75;;;;;;;21.13;73.28;99002.22;5116566;28;20047;-83
2022/06/16 06:49:10;;;;;;;7.63;3.58;;;;;;;21.12;72.92;99000.56;5116589;28;20475;-83
2022/06/16 06:51:36;;;;;;;4.40;3.20;;;;;;;21.56;70.19;99014.34;5116780;28;20054;-83
2022/06/16 06:54:04;;;;;;;4.78;3.22;;;;;;;22.69;67.93;99019.13;5116346;28;20052;-84
2022/06/16 06:56:32;;;;;;;5.88;3.60;;;;;;;23.55;61.36;99017.03;5116498;28;20048;-83
2022/06/16 06:59:03;;;;;;;4.38;3.40;;;;;;;23.72;56.89;99002.91;5116641;27;20130;-82
2022/06/16 07:01:30;;;;;;;6.50;3.55;;;;;;;23.54;56.73;99007.84;5116555;28;20100;-81
2022/06/16 07:03:56;;;;;;;6.20;3.22;;;;;;;23.43;55.09;99015.31;5116233;28;20495;-82
2022/06/16 07:06:26;;;;;;;8.27;3.60;;;;;;;23.14;57.16;99006.66;5116093;28;20048;-84
2022/06/16 07:08:52;;;;;;;10.27;3.30;;;;;;;23.31;54.72;98998.94;5115431;28;20457;-83
2022/06/16 07:11:19;;;;;;;4.88;3.28;;;;;;;23.29;55.96;98987.28;5116518;28;20048;-84
2022/06/16 07:13:46;;;;;;;7.65;3.30;;;;;;;23.38;57.52;99006.16;5114669;27;20063;-83
2022/06/16 07:16:17;;;;;;;4.20;2.88;;;;;;;23.71;54.00;99020.66;5116198;28;20129;-84
2022/06/16 07:18:45;;;;;;;5.50;3.38;;;;;;;24.16;51.32;99027.38;5116597;28;20489;-84
2022/06/16 07:21:12;;;;;;;7.95;3.30;;;;;;;24.42;50.31;99028.22;5116181;28;20047;-85
2022/06/16 07:23:38;;;;;;;6.18;3.25;;;;;;;24.82;50.27;99026.47;5116046;28;20052;-85
2022/06/16 07:26:05;;;;;;;7.88;3.40;;;;;;;24.67;49.30;99016.22;5115787;27;20053;-83
2022/06/16 07:28:34;;;;;;;6.38;3.63;;;;;;;24.99;50.25;99053.13;5112365;27;20051;-84
2022/06/16 07:31:01;;;;;;;5.57;3.70;;;;;;;25.23;51.03;99045.81;5114124;27;20044;-82
2022/06/16 07:33:29;;;;;;;5.93;3.05;;;;;;;25.04;50.12;99042.81;5115216;27;20040;-82
2022/06/16 07:35:57;;;;;;;4.53;3.33;;;;;;;25.30;48.91;99051.09;5115692;28;20047;-84
2022/06/16 07:38:26;;;;;;;6.03;3.25;;;;;;;25.50;48.99;99039.03;5115247;28;20506;-84
2022/06/16 07:41:30;;;;;;;8.23;3.35;;;;;;;25.11;48.33;99044.47;5116176;27;20039;-84
2022/06/16 07:43:39;;;;;;;14.85;3.65;;;;;;;24.62;52.58;99057.13;5115151;28;20105;-84
2022/06/16 07:46:06;;;;;;;4.40;3.75;;;;;;;24.43;52.16;99042.94;5115583;28;20047;-84
2022/06/16 07:48:34;;;;;;;8.88;3.50;;;;;;;24.28;51.77;99052.91;5115753;28;20402;-84
2022/06/16 07:51:00;;;;;;;4.65;3.40;;;;;;;24.42;51.64;99038.47;5115646;28;20043;-84
2022/06/16 07:53:27;;;;;;;8.98;3.47;;;;;;;24.68;51.59;99050.44;5113554;27;20051;-83
2022/06/16 07:55:54;;;;;;;7.97;3.30;;;;;;;24.59;52.24;99041.00;5115703;28;20043;-84
2022/06/16 07:58:21;;;;;;;6.13;3.22;;;;;;;24.58;52.35;99061.53;5115358;28;20122;-84
2022/06/16 08:00:48;;;;;;;4.82;3.30;;;;;;;24.65;54.39;99068.50;5115452;28;20567;-84
2022/06/16 08:03:14;;;;;;;6.40;3.50;;;;;;;25.43;52.01;99064.38;5115469;28;20055;-85
2022/06/16 08:05:50;;;;;;;7.93;3.40;;;;;;;25.91;50.32;99047.13;5115117;28;20535;-85
2022/06/16 08:08:17;;;;;;;10.15;3.97;;;;;;;25.73;48.92;99064.50;5115979;27;20054;-83
2022/06/16 08:10:43;;;;;;;4.07;3.25;;;;;;;25.37;50.64;99062.75;5114213;28;20054;-82
2022/06/16 08:13:10;;;;;;;8.40;3.58;;;;;;;24.98;51.92;99062.59;5114846;28;20055;-84
2022/06/16 08:15:37;;;;;;;7.05;3.65;;;;;;;25.01;51.15;99070.38;5115174;28;20047;-84
2022/06/16 08:18:03;;;;;;;6.43;3.47;;;;;;;25.09;51.32;99056.69;5115423;28;20055;-84
2022/06/16 08:20:30;;;;;;;7.97;3.67;;;;;;;25.16;50.65;99073.09;5115021;28;20049;-83
2022/06/16 08:22:58;;;;;;;5.95;3.33;;;;;;;25.25;51.49;99078.91;5113086;27;20046;-83
2022/06/16 08:25:25;;;;;;;6.07;3.50;;;;;;;24.83;52.93;99077.38;5114978;28;20130;-84
2022/06/16 08:27:52;;;;;;;9.25;3.88;;;;;;;25.22;50.62;99057.22;5114937;28;20055;-84
2022/06/16 08:30:19;;;;;;;7.75;3.80;;;;;;;25.33;51.42;99083.09;5114758;28;20585;-83
2022/06/16 08:32:46;;;;;;;7.88;4.00;;;;;;;25.33;51.04;99077.53;5114395;28;20047;-83
2022/06/16 08:35:13;;;;;;;8.75;3.90;;;;;;;25.29;52.51;99068.03;5114647;28;20050;-84
2022/06/16 08:37:42;;;;;;;4.85;3.75;;;;;;;25.83;49.62;99066.41;5113669;28;20069;-85
2022/06/16 08:40:12;;;;;;;6.32;3.75;;;;;;;25.75;50.76;99087.34;5112850;28;20499;-84
2022/06/16 08:42:50;;;;;;;7.68;3.50;;;;;;;25.94;49.71;99088.31;5111846;27;20048;-83
2022/06/16 08:45:27;;;;;;;8.10;3.50;;;;;;;25.39;50.52;99068.03;5114814;28;20068;-83
2022/06/16 08:48:08;;;;;;;8.15;3.38;;;;;;;25.32;50.69;99084.19;5114748;28;20379;-84
2022/06/16 08:51:04;;;;;;;11.60;3.40;;;;;;;25.80;51.20;99078.94;5114429;28;20398;-84
2022/06/16 08:53:53;;;;;;;12.10;3.20;;;;;;;25.87;49.15;99085.03;5108580;28;20053;-84
2022/06/16 08:56:39;;;;;;;7.60;3.33;;;;;;;26.21;50.14;99078.72;5113431;28;20093;-85
2022/06/16 08:59:13;;;;;;;5.78;3.67;;;;;;;26.31;49.45;99102.84;5113738;28;20044;-84
2022/06/16 09:01:47;;;;;;;6.25;3.83;;;;;;;26.35;50.39;99070.50;5114352;28;20048;-83
2022/06/16 09:04:24;;;;;;;8.32;3.97;;;;;;;26.21;48.19;99101.00;5114133;28;20085;-84
2022/06/16 09:13:35;;;;;;;8.25;3.97;;;;;;;26.21;48.31;99106.56;5114150;28;20414;-85
2022/06/16 09:16:10;;;;;;;7.18;3.38;;;;;;;26.53;45.16;99113.56;5113559;27;20082;-82
2022/06/16 09:18:56;;;;;;;5.43;3.40;;;;;;;26.78;46.06;99120.03;5114236;28;20052;-84
2022/06/16 09:21:34;;;;;;;10.43;3.63;;;;;;;27.09;44.71;99105.78;5114099;28;20086;-83
2022/06/16 09:24:21;;;;;;;5.20;3.25;;;;;;;26.67;43.82;99103.41;5113809;28;20491;-82
2022/06/16 09:26:52;;;;;;;5.40;3.13;;;;;;;26.80;43.56;99093.53;5113780;28;20047;-81
2022/06/16 09:29:25;;;;;;;8.88;3.65;;;;;;;27.04;42.80;99120.63;5111691;28;20048;-80
2022/06/16 09:31:58;;;;;;;8.85;4.35;;;;;;;26.82;44.66;99110.78;5113016;28;20055;-81
2022/06/16 09:34:33;;;;;;;5.95;3.25;;;;;;;26.81;45.48;99098.00;5112922;28;20050;-82
2022/06/16 09:37:03;;;;;;;6.18;3.53;;;;;;;27.18;45.32;99109.59;5112784;28;20083;-81
2022/06/16 09:39:34;;;;;;;8.05;3.58;;;;;;;27.12;45.19;99108.81;5113017;28;20048;-81
2022/06/16 09:45:04;;;;;;;6.78;3.30;;;;;;;27.30;45.16;99131.50;5087627;28;20394;-81
2022/06/16 09:47:35;;;;;;;7.90;3.47;;;;;;;27.34;45.58;99127.84;5092943;28;20051;-81
2022/06/16 09:50:11;;;;;;;7.22;3.20;;;;;;;27.41;45.63;99121.91;5093452;28;20051;-81
2022/06/16 09:52:42;;;;;;;12.82;4.20;;;;;;;27.53;44.62;99135.44;5093014;28;20044;-82
2022/06/16 09:55:15;;;;;;;5.60;3.63;;;;;;;27.61;43.97;99120.84;5093252;28;20067;-82
2022/06/16 09:57:46;;;;;;;7.70;3.38;;;;;;;27.65;44.17;99113.50;5103272;28;20052;-81
2022/06/16 10:00:17;;;;;;;6.97;3.63;;;;;;;27.68;43.69;99114.88;5113651;28;20059;-83
2022/06/16 10:02:48;;;;;;;6.18;3.45;;;;;;;27.78;44.49;99116.72;5113316;28;20043;-84
2022/06/16 10:05:17;;;;;;;5.30;3.42;;;;;;;27.43;43.73;99110.44;5113406;28;20054;-82
2022/06/16 10:07:54;;;;;;;6.70;3.00;;;;;;;28.00;43.79;99130.94;5113192;28;20135;-82
2022/06/16 10:10:28;;;;;;;5.25;3.10;;;;;;;28.01;42.74;99132.59;5112433;28;20043;-81
2022/06/16 10:13:07;;;;;;;7.85;3.25;;;;;;;28.04;41.81;99115.22;5113423;28;20055;-82
2022/06/16 10:15:40;;;;;;;6.60;3.08;;;;;;;28.04;41.53;99125.56;5113409;28;20052;-83
2022/06/16 10:18:08;;;;;;;9.48;3.00;;;;;;;27.66;41.95;99115.16;5113677;28;20059;-82
2022/06/16 10:20:35;;;;;;;8.82;2.75;;;;;;;27.69;41.86;99106.19;5113244;28;20053;-81
2022/06/16 10:23:07;;;;;;;7.13;2.75;;;;;;;27.73;42.98;99142.72;5111866;28;20483;-82
2022/06/16 10:25:37;;;;;;;6.15;2.70;;;;;;;28.12;42.47;99130.47;5113043;28;20048;-83
2022/06/16 10:28:20;;;;;;;9.85;3.00;;;;;;;28.40;44.08;99136.22;5113505;28;20051;-83
2022/06/16 10:30:49;;;;;;;5.55;2.72;;;;;;;28.50;43.61;99133.25;5113055;28;20479;-83
2022/06/16 10:33:19;;;;;;;12.20;2.80;;;;;;;28.72;40.42;99140.19;5127935;28;20050;-84
2022/06/16 10:35:52;;;;;;;5.70;2.85;;;;;;;28.47;39.86;99135.81;5134307;27;20070;-83
2022/06/16 10:41:55;;;;;;;6.85;2.50;;;;;;;28.65;40.02;99154.56;5085473;27;20055;-84
2022/06/16 10:44:31;;;;;;;4.13;2.72;;;;;;;28.70;39.48;99142.47;5135202;27;20039;-83
2022/06/16 10:47:20;;;;;;;6.38;3.13;;;;;;;28.92;39.47;99165.00;5119630;27;20051;-84
2022/06/16 10:49:49;;;;;;;5.35;2.50;;;;;;;28.69;40.07;99160.38;5116983;28;20096;-85
2022/06/16 10:52:32;;;;;;;6.57;3.05;;;;;;;28.32;39.74;99182.47;5116330;28;20067;-82
2022/06/16 10:55:19;;;;;;;7.15;2.67;;;;;;;28.38;40.05;99169.25;5116747;28;20046;-83
2022/06/16 10:57:49;;;;;;;2.72;2.47;;;;;;;28.92;40.47;99167.81;5116520;28;20067;-83
2022/06/16 11:00:24;;;;;;;6.72;2.75;;;;;;;29.11;39.28;99176.13;5116133;27;20056;-83
2022/06/16 11:03:31;;;;;;;5.93;2.10;;;;;;;29.00;38.72;99154.25;5114026;27;20044;-84
2022/06/16 11:06:00;;;;;;;5.40;2.90;;;;;;;29.26;37.38;99174.22;5096029;28;20444;-82
2022/06/16 11:08:34;;;;;;;3.97;2.73;;;;;;;29.05;37.82;99184.94;5096197;28;20118;-83
2022/06/16 11:11:02;;;;;;;11.02;2.38;;;;;;;28.83;37.89;99169.66;5096165;28;20044;-83
2022/06/16 11:13:33;;;;;;;7.20;2.50;;;;;;;29.22;38.69;99181.56;5095552;28;20055;-81
2022/06/16 11:16:00;;;;;;;4.95;2.60;;;;;;;29.10;38.16;99176.44;5104783;28;20086;-81
2022/06/16 11:18:30;;;;;;;3.55;2.13;;;;;;;29.53;37.78;99189.41;5116097;28;20051;-82
2022/06/16 11:21:00;;;;;;;7.15;2.10;;;;;;;29.80;38.22;99189.38;5116236;28;20052;-83
2022/06/16 11:23:32;;;;;;;5.80;2.20;;;;;;;29.72;38.50;99190.13;5116070;28;20131;-84
2022/06/16 11:26:18;;;;;;;7.38;2.17;;;;;;;29.53;37.08;99195.00;5116330;28;20082;-85
2022/06/16 11:28:47;;;;;;;3.60;2.35;;;;;;;29.40;37.31;99186.28;5114741;28;20043;-83
2022/06/16 11:31:17;;;;;;;3.08;2.17;;;;;;;29.39;36.35;99198.63;5095930;28;20043;-84
2022/06/16 11:36:58;;;;;;;10.23;2.60;;;;;;;29.50;35.83;99185.25;5095577;28;20241;-80
2022/06/16 11:39:34;;;;;;;5.00;1.80;;;;;;;29.61;34.73;99209.13;5095141;28;20077;-83
2022/06/16 11:42:01;;;;;;;6.50;2.40;;;;;;;29.85;35.86;99205.28;5095406;28;20052;-85
2022/06/16 11:44:48;;;;;;;6.20;2.30;;;;;;;29.75;34.38;99211.06;5112000;28;20130;-80
2022/06/16 11:47:31;;;;;;;3.13;2.33;;;;;;;30.04;35.66;99207.97;5115624;28;20051;-83
2022/06/16 11:50:06;;;;;;;6.53;2.50;;;;;;;30.23;34.71;99192.97;5115419;28;20563;-83
2022/06/16 11:52:40;;;;;;;9.95;2.20;;;;;;;30.22;34.54;99199.75;5115366;28;20070;-84
2022/06/16 11:55:35;;;;;;;7.28;3.03;;;;;;;29.94;34.73;99182.97;5114930;27;20052;-85
2022/06/16 11:58:21;;;;;;;10.65;7.53;;;;;;;30.05;34.42;99206.84;5115660;28;20112;-84
2022/06/16 12:00:51;;;;;;;7.65;5.30;;;;;;;29.89;33.37;99175.50;5114179;27;20043;-82
2022/06/16 12:03:50;;;;;;;5.82;2.67;;;;;;;30.25;34.65;99201.91;5115269;28;20064;-83
2022/06/16 12:06:32;;;;;;;10.85;5.00;;;;;;;30.06;33.32;99188.03;5110819;28;20074;-84
2022/06/16 12:09:10;;;;;;;4.05;3.25;;;;;;;30.18;34.48;99199.53;5115560;28;20059;-83
2022/06/16 12:11:43;;;;;;;9.10;3.55;;;;;;;30.29;34.85;99183.31;5115399;28;20096;-81
2022/06/16 12:14:17;;;;;;;4.15;2.40;;;;;;;30.10;33.16;99181.50;5113783;27;20050;-81